Latest Coastal Weather Observations for Melbourne (Olympic Park)

IDV60701

Issued at 6:42 am EST Friday 28 April 2017 (issued every 10 minutes, with the page automatically refreshed every 10 minutes)

About coastal observations | Map of coastal stations | Coastal observations for VIC | Marine services | Other Formats
Station Details ID: 086338 Name: MELBOURNE (OLYMPIC PARK) Lat: -37.83 Lon: 144.98 Height: 7.53 m
Data from the previous 72 hours. | See also: Recent months at Melbourne (Olympic Park)
Date/Time
EST
Temp
°C
Wind Pressure Rain since
9am
mm
Weather Cloud Vis
km
Sea
Height
m
Swell
Dir  Spd
kts
Gust
kts
hPa Trend Height
m
Period
s
Dir
28/06:30am 12.5 NNE 3 4 1023.0 - 0.4 - - 10 - - - -
28/06:00am 12.4 NNE 2 4 1022.8 - 0.4 - - 10 - - - -
28/05:30am 12.2 NE 4 7 1022.9 - 0.4 - - 10 - - - -
28/05:00am 12.2 NNE 5 6 1022.6 - 0.4 - - 10 - - - -
28/04:30am 12.6 NNW 3 5 1022.5 - 0.4 - - 10 - - - -
28/04:00am 12.5 NNW 2 4 1022.6 - 0.4 - - 10 - - - -
28/03:30am 12.6 N 4 6 1022.7 - 0.4 - - 10 - - - -
28/03:00am 12.5 NNE 1 3 1022.7 - 0.4 - - 10 - - - -
28/02:30am 12.8 CALM 0 3 1022.9 - 0.4 - - 10 - - - -
28/02:00am 12.8 WNW 3 6 1023.0 - 0.4 - - 10 - - - -
28/01:30am 12.7 NW 3 6 1023.0 - 0.4 - - 10 - - - -
28/01:00am 12.7 NW 4 8 1023.1 - 0.4 - - 10 - - - -
28/12:30am 12.6 WNW 3 5 1023.4 - 0.4 - - 10 - - - -
28/12:00am 12.6 NW 4 8 1023.5 - 0.4 - - 10 - - - -
 
Date/Time
EST
Temp
°C
Wind Pressure Rain since
9am
mm
Weather Cloud Vis
km
Sea
Height
m
Swell
Dir  Spd
kts
Gust
kts
hPa Trend Height
m
Period
s
Dir
27/11:30pm 12.7 NW 3 5 1023.6 - 0.4 - - 10 - - - -
27/11:00pm 12.7 NNW 1 7 1023.6 - 0.4 - - 10 - - - -
27/10:30pm 12.6 NW 2 5 1023.6 - 0.4 - - 10 - - - -
27/10:00pm 12.5 N 4 6 1023.6 - 0.4 - - 10 - - - -
27/09:30pm 12.3 NE 4 5 1023.5 - 0.4 - - 10 - - - -
27/09:00pm 12.0 CALM 0 0 1023.5 - 0.4 - - 10 - - - -
27/08:30pm 12.0 SW 1 4 1023.4 - 0.4 - - 10 - - - -
27/08:00pm 12.0 CALM 0 0 1023.5 - 0.4 - - 10 - - - -
27/07:30pm 12.0 CALM 0 0 1023.4 - 0.4 - - 10 - - - -
27/07:00pm 12.4 CALM 0 0 1023.3 - 0.4 - - 10 - - - -
27/06:30pm 12.4 W 1 5 1023.2 - 0.4 - - 10 - - - -
27/06:00pm 12.2 CALM 0 0 1022.9 - 0.4 - - 10 - - - -
27/05:30pm 12.5 SSW 2 6 1022.8 - 0.4 - - 10 - - - -
27/05:00pm 12.5 SSW 1 6 1022.7 - 0.4 - - 10 - - - -
27/04:30pm 12.6 WSW 4 7 1022.7 - 0.4 - - 10 - - - -
27/04:00pm 13.5 SW 3 7 1022.9 - 0.4 - - 10 - - - -
27/03:30pm 12.9 SW 5 10 1023.1 - 0.4 - - 10 - - - -
27/03:00pm 13.7 SW 6 11 1022.9 - 0.4 - - 10 - - - -
27/02:30pm 13.5 SSW 6 11 1023.2 - 0.4 - - 10 - - - -
27/02:00pm 13.4 SW 5 8 1022.9 - 0.4 - - 10 - - - -
27/01:30pm 12.8 SW 3 7 1023.0 - 0.4 - - 10 - - - -
27/01:00pm 12.8 SW 6 14 1023.0 - 0.4 - - 10 - - - -
27/12:30pm 12.6 WSW 6 11 1023.3 - 0.4 - - 10 - - - -
27/12:00pm 13.0 SSW 6 13 1023.4 - 0.4 Showers - 10 - - - -
27/11:30am 13.4 SW 7 14 1023.4 - 0.4 - - 10 - - - -
27/11:00am 13.0 SW 5 12 1023.3 - 0.4 - - 10 - - - -
27/10:30am 11.3 W 2 7 1023.4 - 0.4 - - 10 - - - -
27/10:00am 9.6 NNW 2 4 1023.3 - 0.4 - - 10 - - - -
27/09:30am 9.6 ENE 3 7 1023.4 - 0.0 - - 10 - - - -
27/09:00am 9.6 NNW 4 6 1023.1 - 15.4 Rain - 10 - - - -
27/08:48am 9.1 W 4 12 1023.1 - 15.2 - - 10 - - - -
27/08:30am 8.8 SW 5 9 1023.0 - 14.8 - - 2 - - - -
27/08:01am 9.6 SW 4 8 1022.6 - 11.0 - - 5 - - - -
27/08:00am 9.6 SW 4 8 1022.6 - 10.6 - - 10 - - - -
27/07:30am 8.9 W 2 5 1022.2 - 9.8 - - 10 - - - -
27/07:21am 8.9 NW 4 5 1022.2 - 9.8 - - 10 - - - -
27/07:00am 8.4 NNW 3 5 1022.3 - 8.8 - - 7 - - - -
27/06:59am 8.5 NW 3 6 1022.2 - 8.6 - - 7 - - - -
27/06:30am 8.7 W 5 8 1021.7 - 7.6 - - 10 - - - -
27/06:04am 8.6 WNW 5 7 1021.3 - 7.4 - - 10 - - - -
27/06:00am 8.6 WNW 5 7 1021.4 - 7.4 Showers - 10 - - - -
27/05:48am 8.7 WSW 5 8 1021.4 - 7.0 - - 7 - - - -
27/05:30am 9.7 SW 3 8 1021.0 - 6.6 - - 10 - - - -
27/05:00am 9.8 S 5 9 1020.5 - 6.0 - - 10 - - - -
27/04:30am 9.6 SSW 1 4 1020.3 - 5.6 - - 10 - - - -
27/04:06am 9.9 SSE 6 13 1020.2 - 5.6 - - 10 - - - -
27/04:00am 9.7 SSE 8 14 1020.1 - 5.4 - - 10 - - - -
27/03:55am 9.9 S 8 14 1020.2 - 5.2 - - 7 - - - -
27/03:30am 10.3 SSE 2 6 1020.1 - 4.6 - - 10 - - - -
27/03:00am 10.5 SSE 5 12 1020.1 - 4.6 Showers - 10 - - - -
27/02:30am 9.9 SSE 5 12 1020.3 - 4.4 - - 10 - - - -
27/02:23am 9.7 S 4 9 1020.3 - 4.4 - - 10 - - - -
27/02:00am 9.4 SW 5 16 1020.1 - 3.8 - - 7 - - - -
27/01:30am 9.5 ENE 1 4 1020.1 - 3.2 - - 10 - - - -
27/01:00am 9.0 NW 5 7 1019.8 - 3.2 - - 10 - - - -
27/12:30am 9.3 SE 4 7 1019.7 - 3.2 - - 10 - - - -
27/12:00am 9.1 W 4 8 1019.5 - 2.4 Rain - 10 - - - -
 
Date/Time
EST
Temp
°C
Wind Pressure Rain since
9am
mm
Weather Cloud Vis
km
Sea
Height
m
Swell
Dir  Spd
kts
Gust
kts
hPa Trend Height
m
Period
s
Dir
26/11:30pm 8.9 WNW 5 8 1019.5 - 2.4 - - 10 - - - -
26/11:00pm 9.6 WNW 6 13 1019.0 - 1.8 - - 10 - - - -
26/10:30pm 10.6 S 5 9 1019.3 - 1.8 - - 10 - - - -
26/10:00pm 9.3 WNW 5 8 1019.3 - 1.8 - - 10 - - - -
26/09:30pm 9.1 W 8 16 1019.1 - 1.4 - - 10 - - - -
26/09:00pm 9.7 W 5 9 1018.7 - 1.2 Rain - 10 - - - -
26/08:30pm 9.7 WSW 6 14 1018.7 - 1.2 - - 10 - - - -
26/08:00pm 10.2 W 5 11 1018.4 - 1.2 - - 10 - - - -
26/07:30pm 10.2 SSW 7 15 1018.1 - 1.2 - - 10 - - - -
26/07:00pm 11.0 WSW 6 13 1017.6 - 1.2 - - 10 - - - -
26/06:30pm 9.9 SSE 6 12 1017.3 - 1.2 - - 10 - - - -
26/06:00pm 12.0 S 9 23 1016.8 - 0.6 Rain - 10 - - - -
26/05:30pm 12.1 SSW 9 18 1016.3 - 0.6 - - 10 - - - -
26/05:00pm 12.6 SSW 8 18 1015.9 - 0.6 - - 10 - - - -
26/04:30pm 13.0 SSW 8 16 1015.6 - 0.6 - - 10 - - - -
26/04:00pm 12.5 SSW 8 19 1015.3 - 0.6 - - 10 - - - -
26/03:30pm 11.5 SSW 12 23 1015.4 - 0.6 - - 10 - - - -
26/03:00pm 10.5 SW 7 19 1015.0 - 0.6 Showers - 10 - - - -
26/02:30pm 13.0 SSW 7 19 1014.1 - 0.2 - - 10 - - - -
26/02:00pm 13.1 S 12 22 1014.0 - 0.2 - - 10 - - - -
26/01:30pm 13.2 S 12 22 1013.5 - 0.2 - - 10 - - - -
26/01:00pm 12.6 S 13 25 1013.4 - 0.2 - - 10 - - - -
26/12:45pm 12.1 S 11 32 1013.2 - 0.2 - - 10 - - - -
26/12:30pm 12.3 SSW 11 28 1013.1 - 0.2 - - 10 - - - -
26/12:10pm 12.7 SSW 15 29 1012.9 - 0.2 - - 10 - - - -
26/12:00pm 13.8 S 11 26 1012.6 - 0.2 - - 10 - - - -
26/11:30am 13.9 S 11 19 1012.3 - 0.2 - - 10 - - - -
26/11:00am 12.8 S 12 24 1011.8 - 0.2 - - 10 - - - -
26/10:30am 14.0 S 11 21 1011.2 - 0.0 - - 10 - - - -
26/10:00am 14.2 SSW 13 27 1010.8 - 0.0 - - 10 - - - -
26/09:30am 13.9 SSW 11 21 1010.5 - 0.0 - - 10 - - - -
26/09:00am 13.2 S 11 21 1009.9 - 20.0 Rain - 10 - - - -
26/08:30am 11.4 WSW 5 16 1009.3 - 20.0 - - 10 - - - -
26/08:25am 11.0 WNW 4 8 1009.3 - 20.0 - - 10 - - - -
26/08:12am 10.8 NE 6 11 1009.2 - 20.0 - - 7 - - - -
26/08:00am 10.7 SE 5 8 1008.8 - 18.8 - - 10 - - - -
26/07:30am 10.4 W 1 4 1008.2 - 18.2 - - 10 - - - -
26/07:27am 10.4 SSW 2 4 1008.4 - 18.2 - - 10 - - - -
26/07:00am 10.4 W 5 14 1008.2 - 17.2 - - 5 - - - -
26/06:53am 10.7 W 5 11 1008.0 - 16.8 - - 7 - - - -
26/06:30am 10.6 W 3 6 1007.5 - 16.0 - - 10 - - - -
26/06:00am 10.7 WNW 5 9 1007.1 - 15.8 Showers - 10 - - - -
26/05:50am 10.8 WNW 5 11 1006.8 - 15.6 - - 10 - - - -
26/05:30am 10.8 W 6 12 1006.7 - 15.4 - - 5 - - - -
26/05:28am 10.8 W 5 12 1006.6 - 14.8 - - 6 - - - -
26/05:01am 11.4 SSW 7 13 1006.0 - 13.4 - - 10 - - - -
26/05:00am 11.4 SSW 7 13 1006.0 - 13.4 - - 10 - - - -
26/04:30am 11.3 SW 10 20 1005.4 - 12.4 - - 5 - - - -
26/04:00am 11.5 SW 10 22 1004.6 - 9.8 - - 3 - - - -
26/03:30am 12.2 NW 8 17 1004.0 - 6.0 - - 3 - - - -
26/03:28am 12.8 NW 7 17 1004.0 - 4.4 - - 7 - - - -
26/03:00am 14.0 N 6 9 1003.8 - 3.6 - - 10 - - - -
26/02:30am 13.3 N 7 9 1003.9 - 3.6 - - 10 - - - -
26/02:00am 13.3 N 6 8 1004.0 - 3.6 - - 10 - - - -
26/01:30am 13.7 N 6 9 1004.1 - 3.6 - - 10 - - - -
26/01:00am 13.6 N 7 11 1004.3 - 3.6 - - 10 - - - -
26/12:30am 14.2 N 7 9 1004.7 - 3.6 - - 10 - - - -
26/12:00am 13.4 NNW 3 5 1005.1 - 3.6 - - 10 - - - -
 
Date/Time
EST
Temp
°C
Wind Pressure Rain since
9am
mm
Weather Cloud Vis
km
Sea
Height
m
Swell
Dir  Spd
kts
Gust
kts
hPa Trend Height
m
Period
s
Dir
25/11:30pm 14.3 NW 2 5 1005.4 - 3.6 - - 10 - - - -
25/11:00pm 14.7 NNW 7 11 1005.5 - 3.6 - - 10 - - - -
25/10:30pm 14.6 NW 7 11 1005.7 - 3.6 - - 10 - - - -
25/10:00pm 14.4 NW 8 13 1006.0 - 3.6 - - 10 - - - -
25/09:39pm 14.6 NW 8 14 1006.2 - 3.4 - - 10 - - - -
25/09:30pm 14.6 NW 9 16 1006.3 - 3.2 - - 9 - - - -
25/09:20pm 15.2 NW 8 12 1006.4 - 3.2 - - 6 - - - -
25/09:00pm 15.2 N 5 8 1005.3 - 1.8 - - 10 - - - -
25/08:30pm 14.9 NNE 4 7 1005.7 - 1.8 - - 10 - - - -
25/08:00pm 15.0 N 5 7 1005.8 - 1.8 - - 10 - - - -
25/07:30pm 15.0 N 5 8 1006.0 - 1.8 - - 10 - - - -
25/07:00pm 15.7 NNE 6 8 1006.0 - 1.8 - - 10 - - - -
25/06:30pm 16.2 NNE 5 6 1006.2 - 1.8 - - 10 - - - -
25/06:00pm 15.3 CALM 0 1 1006.2 - 1.8 - - 10 - - - -
25/05:30pm 16.4 ENE 1 4 1006.4 - 1.8 - - 10 - - - -
25/05:00pm 16.9 CALM 0 0 1006.3 - 1.8 - - 10 - - - -
25/04:30pm 16.9 SSW 1 4 1006.7 - 1.8 - - 10 - - - -
25/04:00pm 17.2 CALM 0 0 1006.7 - 1.8 - - 10 - - - -
25/03:30pm 17.0 S 1 4 1006.8 - 1.8 - - 10 - - - -
25/03:00pm 17.1 S 3 6 1006.9 - 1.6 - - 10 - - - -
25/02:30pm 17.4 S 7 10 1006.9 - 1.6 - - 10 - - - -
25/02:00pm 17.0 SSW 5 11 1007.0 - 1.6 - - 10 - - - -
25/01:30pm 15.9 SSW 8 14 1007.3 - 1.6 - - 10 - - - -
25/01:19pm 15.8 SSW 7 13 1007.4 - 1.6 - - 10 - - - -
25/01:00pm 15.6 SSW 8 15 1007.6 - 1.2 - - 7 - - - -
25/12:30pm 16.1 SW 6 11 1007.7 - 0.8 - - 10 - - - -
25/12:00pm 17.1 SW 8 13 1007.9 - 0.6 Rain - 10 - - - -
25/11:30am 16.3 SW 4 8 1008.2 - 0.6 - - 10 - - - -
25/11:17am 16.2 SW 5 11 1008.3 - 0.6 - - 10 - - - -
25/11:00am 16.4 WSW 6 13 1008.3 - 0.6 - - 6 - - - -
25/10:59am 16.4 WSW 6 15 1008.3 - 0.6 - - 7 - - - -
25/10:30am 17.0 W 5 8 1008.2 - 0.0 - - 10 - - - -
25/10:00am 16.6 W 5 8 1008.3 - 0.0 - - 10 - - - -
25/09:30am 16.3 W 6 12 1008.1 - 0.0 - - 10 - - - -
25/09:00am 16.4 WNW 5 9 1008.1 - 21.6 Rain - - - - - -
25/08:30am 16.3 W 4 11 1007.9 - 21.6 - - - - - - -
25/08:00am 16.6 W 6 12 1007.6 - 21.4 - - - - - - -
25/07:30am 17.3 N 6 7 1006.9 - 19.8 - - - - - - -
25/07:00am 17.2 N 5 7 1006.9 - 19.8 - - - - - - -

Other Formats:

Comma delimited format used in spreadsheet applications
http://www.bom.gov.au/fwo/IDV60701/IDV60701.95936.axf

JavaScript Object Notation format (JSON) in row-major order
http://www.bom.gov.au/fwo/IDV60701/IDV60701.95936.json